Time;durP1;ratioP1;P1;durP2;ratioP2;P2;SDS_P1;SDS_P2;PMS_P1;PMS_P2;Temp;Humidity;BMP_temperature;BMP_pressure;BME280_temperature;BME280_humidity;BME280_pressure;Samples;Min_cycle;Max_cycle;Signal;HPM_P1;HPM_P2
2022/06/25 00:00:27;;;;;;;;;;;;;;;20.29;67.62;99845.25;6188235;23;1019;-85
2022/06/25 00:02:52;;;;;;;;;;;;;;;20.56;67.28;99851.88;6160822;23;1259;-86
2022/06/25 00:05:30;;;;;;;;;;;;;;;20.57;67.19;99850.69;6159552;23;1932;-87
2022/06/25 00:07:58;;;;;;;;;;;;;;;20.58;66.79;99855.09;6160047;23;1330;-86
2022/06/25 00:10:24;;;;;;;;;;;;;;;20.08;67.88;99853.06;6186454;23;767;-86
2022/06/25 00:12:50;;;;;;;;;;;;;;;20.17;67.83;99858.44;6160253;23;1227;-86
2022/06/25 00:15:15;;;;;;;;;;;;;;;20.37;67.54;99863.75;6185947;23;817;-85
2022/06/25 00:17:40;;;;;;;;;;;;;;;19.96;68.78;99867.06;6160886;23;1296;-85
2022/06/25 00:20:06;;;;;;;;;;;;;;;19.95;69.38;99866.25;6162296;23;1343;-85
2022/06/25 00:22:31;;;;;;;;;;;;;;;20.26;68.30;99862.66;6187616;23;1247;-86
2022/06/25 00:24:57;;;;;;;;;;;;;;;20.36;67.87;99856.56;6160547;23;1907;-86
2022/06/25 00:27:22;;;;;;;;;;;;;;;20.23;68.01;99874.50;6160476;23;1314;-86
2022/06/25 00:29:47;;;;;;;;;;;;;;;20.15;67.50;99872.72;6159888;23;862;-86
2022/06/25 00:32:12;;;;;;;;;;;;;;;20.07;67.12;99870.13;6159747;23;1315;-86
2022/06/25 00:34:38;;;;;;;;;;;;;;;19.73;68.05;99866.09;6159257;23;1288;-86
2022/06/25 00:37:03;;;;;;;;;;;;;;;19.77;68.17;99862.22;6160077;23;1248;-87
2022/06/25 00:39:28;;;;;;;;;;;;;;;19.73;67.20;99866.91;6159504;23;1250;-87
2022/06/25 00:41:53;;;;;;;;;;;;;;;19.79;69.17;99872.97;6159693;23;1270;-86
2022/06/25 00:44:18;;;;;;;;;;;;;;;19.87;68.21;99872.81;6186419;23;1881;-86
2022/06/25 00:46:47;;;;;;;;;;;;;;;19.88;69.41;99879.16;6160119;23;926;-86
2022/06/25 00:49:12;;;;;;;;;;;;;;;19.62;69.25;99874.94;6187114;23;802;-86
2022/06/25 00:51:39;;;;;;;;;;;;;;;19.73;69.36;99879.97;6186595;23;1181;-86
2022/06/25 00:54:05;;;;;;;;;;;;;;;19.42;69.93;99872.34;6159882;23;1255;-85
2022/06/25 00:56:37;;;;;;;;;;;;;;;19.64;69.82;99874.59;6159714;23;1220;-86
2022/06/25 00:59:04;;;;;;;;;;;;;;;19.53;69.33;99884.59;6160130;23;1153;-86
2022/06/25 01:01:31;;;;;;;;;;;;;;;19.48;70.67;99879.31;6159695;23;1272;-86
2022/06/25 01:03:56;;;;;;;;;;;;;;;19.51;69.81;99881.34;6159685;23;1196;-86
2022/06/25 01:06:23;;;;;;;;;;;;;;;19.57;69.26;99882.69;6161287;23;1888;-86
2022/06/25 01:08:48;;;;;;;;;;;;;;;19.60;69.61;99896.69;6189546;23;858;-86
2022/06/25 01:11:14;;;;;;;;;;;;;;;19.69;70.27;99893.75;6161703;23;1196;-86
2022/06/25 01:13:39;;;;;;;;;;;;;;;19.63;70.61;99900.72;6162295;23;1500;-86
2022/06/25 01:16:04;;;;;;;;;;;;;;;19.51;71.23;99898.81;6162287;23;1124;-86
2022/06/25 01:18:30;;;;;;;;;;;;;;;19.73;70.24;99891.88;6189904;23;746;-86
2022/06/25 01:20:55;;;;;;;;;;;;;;;19.70;69.97;99895.38;6172092;23;1243;-86
2022/06/25 01:23:21;;;;;;;;;;;;;;;19.85;69.91;99904.88;6186441;23;988;-86
2022/06/25 01:25:46;;;;;;;;;;;;;;;19.88;69.19;99910.53;6159996;23;1932;-85
2022/06/25 01:28:11;;;;;;;;;;;;;;;19.86;69.16;99909.25;6160011;23;1184;-86
2022/06/25 01:30:37;;;;;;;;;;;;;;;19.61;70.89;99903.84;6186415;23;1205;-85
2022/06/25 01:33:02;;;;;;;;;;;;;;;19.65;70.35;99909.50;6186746;23;771;-85
2022/06/25 01:35:27;;;;;;;;;;;;;;;19.68;69.67;99919.91;6187448;23;1004;-85
2022/06/25 01:37:52;;;;;;;;;;;;;;;19.55;71.12;99913.63;6187308;23;1027;-86
2022/06/25 01:40:17;;;;;;;;;;;;;;;19.63;71.42;99918.19;6186403;23;790;-85
2022/06/25 01:42:58;;;;;;;;;;;;;;;19.60;70.91;99926.41;6159347;23;1266;-86
2022/06/25 01:45:23;;;;;;;;;;;;;;;19.44;71.84;99931.91;6159580;23;1892;-86
2022/06/25 01:47:48;;;;;;;;;;;;;;;19.53;70.92;99937.31;6159763;23;1307;-86
2022/06/25 01:50:14;;;;;;;;;;;;;;;19.38;71.41;99933.31;6159400;23;1169;-85
2022/06/25 01:52:40;;;;;;;;;;;;;;;19.50;71.69;99930.50;6159142;23;1344;-85
2022/06/25 01:55:05;;;;;;;;;;;;;;;19.40;71.45;99922.66;6159292;23;1243;-85
2022/06/25 01:57:31;;;;;;;;;;;;;;;19.39;71.29;99923.03;6159890;23;1152;-85
2022/06/25 01:59:56;;;;;;;;;;;;;;;19.35;71.41;99935.97;6160058;23;1317;-86
2022/06/25 02:02:21;;;;;;;;;;;;;;;19.24;71.86;99935.66;6161246;23;1300;-85
2022/06/25 02:04:46;;;;;;;;;;;;;;;19.21;71.78;99939.16;6160735;23;1932;-85
2022/06/25 02:07:11;;;;;;;;;;;;;;;19.37;71.86;99930.91;6186485;23;1011;-85
2022/06/25 02:09:37;;;;;;;;;;;;;;;19.10;73.43;99938.03;6189293;23;801;-86
2022/06/25 02:12:03;;;;;;;;;;;;;;;19.09;72.79;99937.22;6187960;23;1259;-86
2022/06/25 02:14:28;;;;;;;;;;;;;;;19.09;73.31;99931.66;6161675;23;1165;-86
2022/06/25 02:16:53;;;;;;;;;;;;;;;19.27;72.03;99938.56;6187986;23;874;-86
2022/06/25 02:19:18;;;;;;;;;;;;;;;19.17;71.81;99938.22;6162299;23;1321;-86
2022/06/25 02:21:44;;;;;;;;;;;;;;;19.33;71.25;99936.31;6161451;23;1196;-86
2022/06/25 02:24:09;;;;;;;;;;;;;;;19.30;71.77;99937.06;6188087;23;1035;-86
2022/06/25 02:26:34;;;;;;;;;;;;;;;19.18;72.21;99934.31;6162741;23;1869;-85
2022/06/25 02:28:59;;;;;;;;;;;;;;;19.12;72.30;99935.72;6163199;23;996;-85
2022/06/25 02:31:24;;;;;;;;;;;;;;;19.23;72.07;99939.59;6162131;23;1248;-85
2022/06/25 02:33:49;;;;;;;;;;;;;;;19.15;72.82;99941.34;6160509;23;782;-86
2022/06/25 02:36:14;;;;;;;;;;;;;;;19.11;72.18;99942.44;6162013;23;899;-85
2022/06/25 02:38:40;;;;;;;;;;;;;;;19.05;72.35;99949.38;6188318;23;965;-86
2022/06/25 02:41:05;;;;;;;;;;;;;;;19.04;72.39;99947.75;6161600;23;1212;-86
2022/06/25 02:43:30;;;;;;;;;;;;;;;19.24;72.79;99950.34;6160258;23;1008;-86
2022/06/25 02:45:55;;;;;;;;;;;;;;;19.28;72.88;99948.50;6186964;23;1923;-86
2022/06/25 02:48:20;;;;;;;;;;;;;;;19.24;72.03;99950.34;6160413;23;1001;-86
2022/06/25 02:50:46;;;;;;;;;;;;;;;19.24;72.53;99955.91;6160432;23;1196;-86
2022/06/25 02:53:11;;;;;;;;;;;;;;;19.02;72.95;99958.41;6160464;23;1252;-87
2022/06/25 03:01:04;;;;;;;;;;;;;;;18.89;73.74;99968.69;6187596;23;1311;-86
2022/06/25 03:03:30;;;;;;;;;;;;;;;19.08;73.68;99968.09;6160124;23;1369;-86
2022/06/25 03:05:56;;;;;;;;;;;;;;;19.13;74.16;99962.31;6187620;23;1930;-86
2022/06/25 03:08:21;;;;;;;;;;;;;;;19.25;74.19;99976.13;6161338;23;1324;-86
2022/06/25 03:10:46;;;;;;;;;;;;;;;19.41;73.62;99981.75;6161429;23;1247;-86
2022/06/25 03:13:11;;;;;;;;;;;;;;;18.99;75.23;99987.63;6162003;23;799;-86
2022/06/25 03:15:37;;;;;;;;;;;;;;;19.16;75.14;99986.56;6188482;23;870;-86
2022/06/25 03:18:02;;;;;;;;;;;;;;;19.28;74.54;99990.13;6162123;23;1176;-85
2022/06/25 03:20:27;;;;;;;;;;;;;;;19.28;74.05;99995.69;6161194;23;1142;-86
2022/06/25 03:22:52;;;;;;;;;;;;;;;19.37;73.94;99989.19;6187274;23;1200;-86
2022/06/25 03:25:17;;;;;;;;;;;;;;;19.31;74.71;99994.16;6161648;23;1889;-85
2022/06/25 03:27:43;;;;;;;;;;;;;;;19.20;74.12;99995.81;6161194;23;1259;-86
2022/06/25 03:30:08;;;;;;;;;;;;;;;19.26;74.78;99997.19;6161389;23;1005;-85
2022/06/25 03:32:33;;;;;;;;;;;;;;;19.35;74.45;99997.03;6161105;23;1208;-86
2022/06/25 03:34:58;;;;;;;;;;;;;;;19.42;74.64;100002.78;6186534;23;913;-86
2022/06/25 03:37:23;;;;;;;;;;;;;;;19.44;74.76;100003.25;6160307;23;847;-86
2022/06/25 03:39:48;;;;;;;;;;;;;;;19.41;75.02;100003.94;6161326;23;996;-86
2022/06/25 03:42:14;;;;;;;;;;;;;;;19.39;75.53;100014.63;6160725;23;1185;-86
2022/06/25 03:44:39;;;;;;;;;;;;;;;19.34;75.30;100014.84;6160420;23;1857;-86
2022/06/25 03:47:04;;;;;;;;;;;;;;;19.39;75.49;100011.84;6161899;23;1330;-85
2022/06/25 03:49:29;;;;;;;;;;;;;;;19.42;75.24;100025.00;6162385;23;1256;-86
2022/06/25 03:51:54;;;;;;;;;;;;;;;19.42;75.24;100027.78;6161457;23;1287;-85
2022/06/25 03:54:20;;;;;;;;;;;;;;;19.40;74.80;100030.91;6162530;23;957;-85
2022/06/25 03:56:45;;;;;;;;;;;;;;;19.36;75.78;100027.22;6161746;23;1247;-86
2022/06/25 03:59:11;;;;;;;;;;;;;;;19.32;75.44;100029.06;6161948;23;1355;-86
2022/06/25 04:01:36;;;;;;;;;;;;;;;19.32;76.00;100036.59;6161062;23;1315;-86
2022/06/25 04:04:01;;;;;;;;;;;;;;;19.35;75.45;100030.34;6187802;23;1024;-86
2022/06/25 04:06:26;;;;;;;;;;;;;;;19.36;75.62;100035.53;6162290;23;1884;-85
2022/06/25 04:08:52;;;;;;;;;;;;;;;19.34;75.66;100025.94;6188562;23;810;-86
2022/06/25 04:11:17;;;;;;;;;;;;;;;19.34;76.29;100028.72;6161890;23;1327;-86
2022/06/25 04:13:42;;;;;;;;;;;;;;;19.35;75.76;100033.94;6160747;23;1264;-86
2022/06/25 04:16:07;;;;;;;;;;;;;;;19.38;75.70;100027.69;6160945;23;842;-86
2022/06/25 04:18:32;;;;;;;;;;;;;;;19.37;75.72;100030.81;6187457;23;993;-86
2022/06/25 04:20:58;;;;;;;;;;;;;;;19.39;75.15;100034.03;6186907;23;1278;-86
2022/06/25 04:23:23;;;;;;;;;;;;;;;19.38;75.36;100038.78;6160561;23;1203;-86
2022/06/25 04:25:49;;;;;;;;;;;;;;;19.41;76.08;100037.25;6160675;23;1944;-85
2022/06/25 04:30:58;;;;;;;;;;;;;;;19.40;75.71;100042.00;6187744;23;1303;-86
2022/06/25 04:33:23;;;;;;;;;;;;;;;19.41;75.44;100043.63;6160740;23;1208;-85
2022/06/25 04:35:48;;;;;;;;;;;;;;;19.40;75.02;100043.97;6163362;23;1000;-86
2022/06/25 04:38:13;;;;;;;;;;;;;;;19.49;75.81;100044.66;6162980;23;1220;-85
2022/06/25 04:40:38;;;;;;;;;;;;;;;19.38;75.00;100043.53;6167461;23;1238;-87
2022/06/25 04:43:04;;;;;;;;;;;;;;;19.42;75.10;100053.56;6193712;23;1012;-86
2022/06/25 04:45:29;;;;;;;;;;;;;;;19.38;75.72;100054.63;6161187;23;1884;-86
2022/06/25 04:48:00;;;;;;;;;;;;;;;19.40;75.00;100066.16;6185742;23;1008;-86
2022/06/25 04:50:26;;;;;;;;;;;;;;;19.39;75.07;100054.28;6185500;23;755;-86
2022/06/25 04:52:51;;;;;;;;;;;;;;;19.38;75.45;100060.19;6159584;23;1157;-86
2022/06/25 04:55:16;;;;;;;;;;;;;;;19.40;76.12;100055.06;6185216;23;996;-86
2022/06/25 04:57:41;;;;;;;;;;;;;;;19.51;75.98;100059.00;6185532;23;779;-86
2022/06/25 05:00:07;;;;;;;;;;;;;;;19.50;76.01;100062.94;6158785;23;1248;-86
2022/06/25 05:02:32;;;;;;;;;;;;;;;19.59;75.29;100066.38;6159418;23;1271;-87
2022/06/25 05:04:57;;;;;;;;;;;;;;;19.61;74.27;100070.44;6158982;23;1885;-86
2022/06/25 05:07:22;;;;;;;;;;;;;;;19.69;74.12;100068.69;6185961;23;873;-86
2022/06/25 05:09:47;;;;;;;;;;;;;;;19.73;75.03;100077.13;6159189;23;1150;-86
2022/06/25 05:13:11;;;;;;;;;;;;;;;19.74;74.89;100071.19;6185727;23;1251;-85
2022/06/25 05:14:58;;;;;;;;;;;;;;;19.70;74.25;100075.84;6184882;23;1026;-86
2022/06/25 05:17:23;;;;;;;;;;;;;;;19.74;74.38;100085.09;6159615;23;1392;-86
2022/06/25 05:19:48;;;;;;;;;;;;;;;19.74;74.52;100085.09;6185486;23;778;-86
2022/06/25 05:22:13;;;;;;;;;;;;;;;19.76;74.48;100087.50;6159150;23;1281;-86
2022/06/25 05:24:38;;;;;;;;;;;;;;;19.76;74.20;100093.88;6158384;23;1928;-86
2022/06/25 05:27:04;;;;;;;;;;;;;;;19.74;74.18;100095.38;6159381;23;1331;-86
2022/06/25 05:29:29;;;;;;;;;;;;;;;19.76;74.05;100093.88;6158805;23;1184;-86
2022/06/25 05:31:54;;;;;;;;;;;;;;;19.82;73.72;100097.25;6159543;23;1275;-86
2022/06/25 05:34:19;;;;;;;;;;;;;;;19.77;73.50;100094.69;6158744;23;1131;-85
2022/06/25 05:36:45;;;;;;;;;;;;;;;19.82;73.16;100094.47;6184701;23;672;-86
2022/06/25 05:39:10;;;;;;;;;;;;;;;19.85;72.48;100096.50;6157822;23;1248;-86
2022/06/25 05:41:36;;;;;;;;;;;;;;;19.88;72.93;100093.84;6184891;23;1283;-86
2022/06/25 05:44:01;;;;;;;;;;;;;;;19.89;73.06;100103.00;6159871;23;989;-85
2022/06/25 05:46:26;;;;;;;;;;;;;;;19.93;72.39;100101.13;6160850;23;1849;-85
2022/06/25 05:48:51;;;;;;;;;;;;;;;19.97;72.57;100093.69;6161616;23;1262;-86
2022/06/25 05:51:16;;;;;;;;;;;;;;;19.98;72.74;100096.13;6160493;23;1200;-86
2022/06/25 05:53:41;;;;;;;;;;;;;;;20.00;72.79;100098.53;6161145;23;1212;-85
2022/06/25 05:56:06;;;;;;;;;;;;;;;20.02;73.04;100102.59;6187729;23;798;-86
2022/06/25 05:58:32;;;;;;;;;;;;;;;20.02;72.69;100104.56;6161266;23;952;-86
2022/06/25 06:00:57;;;;;;;;;;;;;;;20.02;72.74;100102.59;6160756;23;1418;-86
2022/06/25 06:03:22;;;;;;;;;;;;;;;20.07;72.75;100106.28;6186720;23;988;-86
2022/06/25 06:05:47;;;;;;;;;;;;;;;20.08;72.09;100099.53;6160902;23;1889;-85
2022/06/25 06:08:13;;;;;;;;;;;;;;;20.07;72.41;100095.19;6161225;23;988;-86
2022/06/25 06:10:38;;;;;;;;;;;;;;;20.10;72.19;100091.66;6187498;23;1345;-87
2022/06/25 06:13:03;;;;;;;;;;;;;;;20.12;72.31;100087.38;6160999;23;996;-86
2022/06/25 06:15:28;;;;;;;;;;;;;;;20.03;71.83;100081.97;6187584;23;794;-85
2022/06/25 06:17:53;;;;;;;;;;;;;;;20.09;72.22;100084.50;6186815;23;973;-85
2022/06/25 06:20:18;;;;;;;;;;;;;;;20.16;72.15;100090.28;6160578;23;1045;-86
2022/06/25 06:22:43;;;;;;;;;;;;;;;20.15;72.22;100083.91;6187076;23;1101;-86
2022/06/25 06:25:09;;;;;;;;;;;;;;;20.18;72.63;100088.72;6186816;23;1905;-86
2022/06/25 06:27:34;;;;;;;;;;;;;;;20.29;73.04;100089.03;6186521;23;762;-85
2022/06/25 06:29:59;;;;;;;;;;;;;;;20.33;72.39;100087.19;6160494;23;1351;-86
2022/06/25 06:32:24;;;;;;;;;;;;;;;20.37;72.41;100086.13;6160626;23;1287;-86
2022/06/25 06:34:49;;;;;;;;;;;;;;;20.37;71.97;100100.03;6159980;23;953;-86
2022/06/25 06:37:15;;;;;;;;;;;;;;;20.35;72.63;100099.56;6187193;23;992;-87
2022/06/25 06:39:40;;;;;;;;;;;;;;;20.39;71.65;100096.91;6161127;23;1343;-87
2022/06/25 06:42:05;;;;;;;;;;;;;;;20.39;72.11;100106.03;6160254;23;1216;-86
2022/06/25 06:44:30;;;;;;;;;;;;;;;20.40;72.46;100106.84;6186251;23;1927;-87
2022/06/25 06:46:55;;;;;;;;;;;;;;;20.43;72.33;100108.09;6160992;23;1187;-87
2022/06/25 06:49:20;;;;;;;;;;;;;;;20.44;72.03;100107.75;6161129;23;1299;-87
2022/06/25 06:51:46;;;;;;;;;;;;;;;20.47;72.45;100106.22;6160080;23;1192;-88
2022/06/25 06:54:11;;;;;;;;;;;;;;;20.45;71.80;100094.66;6160514;23;1220;-86
2022/06/25 06:56:36;;;;;;;;;;;;;;;20.48;72.55;100096.72;6186487;23;1012;-87
2022/06/25 06:59:02;;;;;;;;;;;;;;;20.52;71.96;100092.06;6161823;23;1383;-88
2022/06/25 07:01:27;;;;;;;;;;;;;;;20.51;72.16;100102.38;6160675;23;1390;-86
2022/06/25 07:03:53;;;;;;;;;;;;;;;20.55;71.69;100106.06;6160150;23;1225;-88
2022/06/25 07:06:18;;;;;;;;;;;;;;;20.53;71.26;100107.56;6160540;23;1924;-87
2022/06/25 07:08:43;;;;;;;;;;;;;;;20.54;71.85;100111.97;6160916;23;1291;-87
2022/06/25 07:13:53;;;;;;;;;;;;;;;20.70;71.61;100110.81;6186250;23;624;-87
2022/06/25 07:16:18;;;;;;;;;;;;;;;20.77;71.53;100104.63;6186749;23;778;-87
2022/06/25 07:18:43;;;;;;;;;;;;;;;20.76;71.50;100109.38;6161200;23;1016;-88
2022/06/25 07:21:08;;;;;;;;;;;;;;;20.78;71.70;100115.41;6187727;23;1267;-87
2022/06/25 07:23:34;;;;;;;;;;;;;;;20.72;70.92;100114.06;6160224;23;695;-87
2022/06/25 07:25:59;;;;;;;;;;;;;;;20.81;71.67;100116.69;6187050;23;1928;-87
2022/06/25 07:28:24;;;;;;;;;;;;;;;20.94;71.74;100112.63;6186750;23;1009;-87
2022/06/25 07:30:49;;;;;;;;;;;;;;;21.06;70.94;100109.75;6160443;23;1280;-87
2022/06/25 07:33:14;;;;;;;;;;;;;;;21.15;70.34;100107.59;6186510;23;914;-88
2022/06/25 07:35:39;;;;;;;;;;;;;;;21.27;69.50;100112.25;6186993;23;968;-88
2022/06/25 07:38:05;;;;;;;;;;;;;;;21.30;69.92;100117.13;6186712;23;957;-87
2022/06/25 07:40:30;;;;;;;;;;;;;;;21.30;69.37;100113.53;6187041;23;782;-87
2022/06/25 07:42:55;;;;;;;;;;;;;;;21.32;69.99;100114.78;6159949;23;1271;-86
2022/06/25 07:45:20;;;;;;;;;;;;;;;21.35;69.42;100111.25;6160369;23;1877;-87
2022/06/25 07:47:45;;;;;;;;;;;;;;;21.31;69.67;100113.16;6160328;23;989;-89
2022/06/25 07:52:54;;;;;;;;;;;;;;;21.60;68.74;100105.47;6186761;23;1279;-87
2022/06/25 07:55:20;;;;;;;;;;;;;;;21.68;69.41;100116.41;6159764;23;833;-87
2022/06/25 07:57:45;;;;;;;;;;;;;;;21.61;68.89;100109.84;6159686;23;1276;-87
2022/06/25 08:00:11;;;;;;;;;;;;;;;21.71;68.56;100120.44;6160030;23;1354;-86
2022/06/25 08:02:36;;;;;;;;;;;;;;;21.68;68.52;100110.03;6186800;23;1211;-85
2022/06/25 08:05:02;;;;;;;;;;;;;;;21.73;69.11;100113.31;6160763;23;1938;-86
2022/06/25 08:07:27;;;;;;;;;;;;;;;21.84;67.97;100116.34;6172434;23;1200;-87
2022/06/25 08:09:52;;;;;;;;;;;;;;;21.85;68.14;100117.97;6162233;23;1056;-87
2022/06/25 08:12:17;;;;;;;;;;;;;;;21.95;68.15;100113.81;6159936;23;1133;-86
2022/06/25 08:14:42;;;;;;;;;;;;;;;22.03;68.58;100110.00;6159476;23;1303;-86
2022/06/25 08:17:07;;;;;;;;;;;;;;;22.03;66.42;100113.59;6160407;23;1022;-87
2022/06/25 08:19:33;;;;;;;;;;;;;;;21.93;65.48;100111.38;6186175;23;878;-87
2022/06/25 08:21:58;;;;;;;;;;;;;;;21.92;66.34;100109.75;6186384;23;1271;-86
2022/06/25 08:24:24;;;;;;;;;;;;;;;21.97;67.95;100117.84;6185430;23;1044;-86
2022/06/25 08:26:49;;;;;;;;;;;;;;;21.85;67.25;100115.19;6159655;23;1931;-86
2022/06/25 08:29:14;;;;;;;;;;;;;;;21.86;66.92;100108.44;6159616;23;1255;-86
2022/06/25 08:31:39;;;;;;;;;;;;;;;21.94;64.75;100115.78;6159144;23;1202;-87
2022/06/25 08:34:05;;;;;;;;;;;;;;;22.01;64.25;100113.16;6159652;23;1275;-86
2022/06/25 08:36:30;;;;;;;;;;;;;;;22.17;65.79;100099.94;6185713;23;759;-87
2022/06/25 08:38:55;;;;;;;;;;;;;;;22.27;65.07;100104.13;6159268;23;1047;-87
2022/06/25 08:41:20;;;;;;;;;;;;;;;22.39;63.69;100105.94;6159323;23;1327;-86
2022/06/25 08:43:45;;;;;;;;;;;;;;;22.52;63.10;100107.38;6186349;23;980;-87
2022/06/25 08:46:10;;;;;;;;;;;;;;;22.65;62.73;100104.03;6159299;23;1924;-86
2022/06/25 08:48:37;;;;;;;;;;;;;;;22.75;63.57;100099.88;6159535;23;941;-87
2022/06/25 08:51:03;;;;;;;;;;;;;;;22.80;62.75;100102.34;6158401;23;1315;-87
2022/06/25 08:53:32;;;;;;;;;;;;;;;22.84;62.82;100110.78;6159631;23;1338;-87
2022/06/25 08:55:58;;;;;;;;;;;;;;;22.86;63.38;100109.22;6160141;23;1368;-87
2022/06/25 08:58:23;;;;;;;;;;;;;;;22.91;63.39;100100.53;6185435;23;964;-87
2022/06/25 09:00:48;;;;;;;;;;;;;;;22.96;62.31;100110.59;6186986;23;1279;-86
2022/06/25 09:03:14;;;;;;;;;;;;;;;22.86;61.17;100108.44;6159830;23;1282;-86
2022/06/25 09:05:40;;;;;;;;;;;;;;;22.90;59.29;100098.13;6185795;23;1881;-87
2022/06/25 09:08:07;;;;;;;;;;;;;;;22.91;61.84;100092.16;6160072;23;1352;-86
2022/06/25 09:10:32;;;;;;;;;;;;;;;22.93;60.53;100095.41;6159627;23;1384;-86
2022/06/25 09:12:59;;;;;;;;;;;;;;;23.04;62.46;100100.34;6159511;23;1303;-86
2022/06/25 09:15:27;;;;;;;;;;;;;;;23.17;61.70;100099.75;6159257;23;1186;-87
2022/06/25 09:17:52;;;;;;;;;;;;;;;23.34;61.54;100090.84;6158747;23;1232;-86
2022/06/25 09:20:18;;;;;;;;;;;;;;;23.40;58.43;100096.91;6185532;23;790;-86
2022/06/25 09:22:54;;;;;;;;;;;;;;;23.33;59.58;100094.03;6159653;23;1292;-87
2022/06/25 09:25:24;;;;;;;;;;;;;;;23.25;60.29;100095.09;6185683;23;1919;-86
2022/06/25 09:27:49;;;;;;;;;;;;;;;23.26;59.06;100091.13;6159426;23;1254;-87
2022/06/25 09:30:16;;;;;;;;;;;;;;;23.19;58.89;100091.81;6158901;23;919;-87
2022/06/25 09:32:48;;;;;;;;;;;;;;;22.92;59.11;100092.97;6159087;23;1283;-87
2022/06/25 09:35:14;;;;;;;;;;;;;;;22.74;58.32;100095.47;6159112;23;1307;-88
2022/06/25 09:37:40;;;;;;;;;;;;;;;22.49;59.63;100083.81;6185190;23;985;-88
2022/06/25 09:40:06;;;;;;;;;;;;;;;22.56;58.25;100097.91;6159670;23;1354;-87
2022/06/25 09:42:32;;;;;;;;;;;;;;;22.56;57.29;100091.50;6185737;23;1267;-87
2022/06/25 09:44:59;;;;;;;;;;;;;;;22.73;59.71;100088.22;6159137;23;1914;-86
2022/06/25 09:47:25;;;;;;;;;;;;;;;22.85;59.70;100088.09;6186002;23;767;-86
2022/06/25 09:50:01;;;;;;;;;;;;;;;22.92;57.66;100088.19;6159406;23;1220;-87
2022/06/25 09:52:26;;;;;;;;;;;;;;;22.96;59.49;100093.84;6185389;23;1251;-87
2022/06/25 09:54:51;;;;;;;;;;;;;;;22.98;56.85;100088.69;6159236;23;1073;-86
2022/06/25 09:57:17;;;;;;;;;;;;;;;23.08;61.52;100090.84;6185557;23;767;-87
2022/06/25 09:59:42;;;;;;;;;;;;;;;23.10;59.89;100102.44;6159502;23;1172;-87
2022/06/25 10:02:08;;;;;;;;;;;;;;;23.02;58.14;100101.53;6158217;23;1256;-87
2022/06/25 10:04:34;;;;;;;;;;;;;;;22.93;59.05;100100.97;6158906;23;1880;-87
2022/06/25 10:07:02;;;;;;;;;;;;;;;22.90;59.48;100098.13;6185528;23;834;-88
2022/06/25 10:09:27;;;;;;;;;;;;;;;22.98;58.27;100094.25;6158754;23;1189;-86
2022/06/25 10:11:52;;;;;;;;;;;;;;;23.01;58.30;100091.53;6184529;23;1196;-86
2022/06/25 10:14:17;;;;;;;;;;;;;;;23.08;58.12;100092.81;6158601;23;1238;-86
2022/06/25 10:16:43;;;;;;;;;;;;;;;23.15;59.59;100092.94;6185507;23;973;-87
2022/06/25 10:19:10;;;;;;;;;;;;;;;23.23;58.57;100089.88;6158862;23;1232;-87
2022/06/25 10:21:35;;;;;;;;;;;;;;;23.28;57.35;100097.16;6159137;23;1271;-88
2022/06/25 10:24:03;;;;;;;;;;;;;;;23.29;57.37;100087.59;6159215;23;1251;-87
2022/06/25 10:26:28;;;;;;;;;;;;;;;23.31;58.48;100091.59;6185246;23;1897;-87
2022/06/25 10:28:53;;;;;;;;;;;;;;;23.31;59.52;100099.16;6185208;23;1008;-87
2022/06/25 10:31:19;;;;;;;;;;;;;;;23.28;58.52;100095.16;6160886;23;1283;-87
2022/06/25 10:37:21;;;;;;;;;;;;;;;;;;;;;
2022/06/25 10:39:59;;;;;;;;;;;;;;;23.52;56.75;100082.75;6186587;23;558;-87
2022/06/25 10:48:35;;;;;;;;;;;;;;;23.72;55.63;100084.25;6109289;23;1143;-86
2022/06/25 10:57:53;;;;;;;;;;;;;;;;;;;;;
2022/06/25 11:08:08;;;;;;;;;;;;;;;23.77;57.57;100067.13;6215212;23;703;-89
2022/06/25 11:10:34;;;;;;;;;;;;;;;23.88;59.30;100067.28;6191905;23;1237;-88
2022/06/25 11:12:59;;;;;;;;;;;;;;;23.98;58.07;100068.59;6161202;23;1188;-88
2022/06/25 11:15:24;;;;;;;;;;;;;;;24.06;57.17;100073.09;6187635;23;767;-87
2022/06/25 11:17:50;;;;;;;;;;;;;;;24.13;54.22;100073.97;6187353;23;1016;-88
2022/06/25 11:20:15;;;;;;;;;;;;;;;24.20;54.17;100062.06;6161159;23;1341;-88
2022/06/25 11:22:47;;;;;;;;;;;;;;;24.32;55.00;100059.03;6187281;23;1244;-88
2022/06/25 11:30:40;;;;;;;;;;;;;;;24.72;56.49;100057.41;6188682;23;1208;-88
2022/06/25 11:33:08;;;;;;;;;;;;;;;24.81;54.39;100057.88;6164222;23;1278;-89
2022/06/25 11:35:40;;;;;;;;;;;;;;;24.93;52.72;100054.00;6172324;23;1250;-89
2022/06/25 11:38:19;;;;;;;;;;;;;;;25.01;53.10;100048.06;6187840;23;1023;-89
2022/06/25 11:40:44;;;;;;;;;;;;;;;25.01;51.31;100048.06;6161068;23;1231;-88
2022/06/25 11:43:10;;;;;;;;;;;;;;;25.05;52.31;100054.50;6161134;23;1208;-89
2022/06/25 11:45:49;;;;;;;;;;;;;;;25.02;51.56;100057.25;6187076;23;1897;-88
2022/06/25 11:48:14;;;;;;;;;;;;;;;24.79;50.91;100047.06;6161578;23;1319;-88
2022/06/25 11:50:39;;;;;;;;;;;;;;;24.64;51.97;100056.53;6187359;23;1165;-88
2022/06/25 11:53:04;;;;;;;;;;;;;;;24.63;51.15;100054.94;6160978;23;1063;-87
2022/06/25 11:55:30;;;;;;;;;;;;;;;24.81;50.71;100049.47;6161645;23;1426;-88
2022/06/25 11:57:57;;;;;;;;;;;;;;;25.03;52.85;100048.47;6161156;23;1247;-88
2022/06/25 12:00:23;;;;;;;;;;;;;;;25.28;51.82;100043.03;6160895;23;1184;-88
2022/06/25 12:03:00;;;;;;;;;;;;;;;25.41;51.11;100049.13;6161835;23;1298;-88
2022/06/25 12:05:25;;;;;;;;;;;;;;;25.51;52.03;100035.19;6161282;23;1932;-88
2022/06/25 12:07:50;;;;;;;;;;;;;;;25.50;50.78;100039.19;6189516;23;990;-88
2022/06/25 12:10:15;;;;;;;;;;;;;;;25.53;50.66;100032.78;6189324;23;806;-88
2022/06/25 12:12:41;;;;;;;;;;;;;;;25.61;50.29;100039.25;6161932;23;1366;-88
2022/06/25 12:15:07;;;;;;;;;;;;;;;25.66;50.09;100035.28;6161836;23;1263;-88
2022/06/25 12:17:36;;;;;;;;;;;;;;;25.62;49.03;100033.25;6161283;23;1145;-88
2022/06/25 12:20:06;;;;;;;;;;;;;;;25.57;49.00;100035.59;6160868;23;1220;-88
2022/06/25 12:22:31;;;;;;;;;;;;;;;25.51;50.30;100040.00;6160488;23;1248;-87
2022/06/25 12:24:58;;;;;;;;;;;;;;;25.19;49.31;100029.38;6186837;23;1932;-88
2022/06/25 12:27:26;;;;;;;;;;;;;;;24.92;50.15;100036.41;6160679;23;1208;-88
2022/06/25 12:29:55;;;;;;;;;;;;;;;24.95;50.81;100030.03;6187220;23;846;-88
2022/06/25 12:32:34;;;;;;;;;;;;;;;25.07;48.81;100029.72;6160493;23;1358;-88
2022/06/25 12:34:59;;;;;;;;;;;;;;;25.08;49.48;100034.13;6160234;23;1243;-88
2022/06/25 12:37:32;;;;;;;;;;;;;;;25.09;49.88;100037.72;6187102;23;783;-88
2022/06/25 12:39:57;;;;;;;;;;;;;;;25.13;50.29;100033.75;6187003;23;1040;-89
2022/06/25 12:42:23;;;;;;;;;;;;;;;25.27;49.50;100021.81;6186806;23;1166;-88
2022/06/25 12:44:49;;;;;;;;;;;;;;;25.38;47.92;100021.88;6160534;23;1948;-88
2022/06/25 12:47:15;;;;;;;;;;;;;;;25.41;49.38;100021.13;6160612;23;1341;-88
2022/06/25 12:49:48;;;;;;;;;;;;;;;25.34;48.53;100021.09;6161406;23;1268;-88
2022/06/25 12:52:16;;;;;;;;;;;;;;;25.20;50.21;100031.00;6162608;23;1336;-87
2022/06/25 12:54:46;;;;;;;;;;;;;;;25.15;50.00;100025.78;6162663;23;1259;-88
2022/06/25 12:57:22;;;;;;;;;;;;;;;25.10;49.10;100030.91;6162866;23;1195;-87
2022/06/25 12:59:48;;;;;;;;;;;;;;;25.08;50.18;100036.94;6163248;23;1274;-89
2022/06/25 13:02:13;;;;;;;;;;;;;;;25.04;51.29;100027.69;6160563;23;1232;-88
2022/06/25 13:04:38;;;;;;;;;;;;;;;25.02;51.07;100029.25;6188732;23;1932;-88
2022/06/25 13:07:04;;;;;;;;;;;;;;;25.01;51.20;100028.44;6188494;23;821;-88
2022/06/25 13:09:29;;;;;;;;;;;;;;;24.97;51.63;100038.03;6162871;23;1170;-88
2022/06/25 13:11:54;;;;;;;;;;;;;;;24.96;51.93;100034.44;6162291;23;1374;-89
2022/06/25 13:14:19;;;;;;;;;;;;;;;25.13;52.96;100039.34;6163229;23;858;-89
2022/06/25 13:16:44;;;;;;;;;;;;;;;25.49;50.62;100033.97;6159809;23;894;-88
2022/06/25 13:19:10;;;;;;;;;;;;;;;25.48;49.92;100026.75;6161852;23;987;-88
2022/06/25 13:21:40;;;;;;;;;;;;;;;25.75;49.38;100032.91;6160795;23;1277;-88
2022/06/25 13:24:05;;;;;;;;;;;;;;;25.95;48.67;100020.97;6159041;23;1098;-88
2022/06/25 13:26:30;;;;;;;;;;;;;;;26.09;47.46;100016.59;6159096;23;1888;-87
2022/06/25 13:28:55;;;;;;;;;;;;;;;26.22;48.78;100024.25;6157852;23;1371;-87
2022/06/25 13:31:20;;;;;;;;;;;;;;;26.44;47.60;100019.50;6157409;23;1267;-87